Time;durP1;ratioP1;P1;durP2;ratioP2;P2;SDS_P1;SDS_P2;PMS_P1;PMS_P2;Temp;Humidity;BMP_temperature;BMP_pressure;BME280_temperature;BME280_humidity;BME280_pressure;Samples;Min_cycle;Max_cycle;Signal;HPM_P1;HPM_P2
2021/01/02 00:02:25;;;;;;;0.50;0.50;;;3.90;99.90;;;;;;5063171;28;20209;-86
2021/01/02 00:04:50;;;;;;;1.43;1.10;;;4.00;99.90;;;;;;5069168;28;20704;-87
2021/01/02 00:07:52;;;;;;;0.47;0.47;;;4.00;99.90;;;;;;5044179;28;20185;-84
2021/01/02 00:10:21;;;;;;;0.40;0.40;;;3.80;99.90;;;;;;5060408;28;20254;-86
2021/01/02 00:12:52;;;;;;;0.37;0.37;;;3.80;99.90;;;;;;5059163;28;20223;-87
2021/01/02 00:15:30;;;;;;;3.70;0.67;;;3.80;99.90;;;;;;5063205;28;20186;-84
2021/01/02 00:18:09;;;;;;;1.57;1.23;;;3.60;99.90;;;;;;5063312;28;20647;-87
2021/01/02 00:20:41;;;;;;;2.00;1.20;;;3.60;99.90;;;;;;5053888;28;20657;-85
2021/01/02 00:23:37;;;;;;;1.67;1.00;;;3.50;99.90;;;;;;5061126;28;20239;-84
2021/01/02 00:26:14;;;;;;;1.47;1.37;;;3.50;99.90;;;;;;5039484;28;20183;-85
2021/01/02 00:28:43;;;;;;;0.63;0.40;;;3.70;99.90;;;;;;5058669;28;20186;-85
2021/01/02 00:31:12;;;;;;;2.07;1.40;;;3.70;99.90;;;;;;5056504;28;20186;-83
2021/01/02 00:34:14;;;;;;;1.07;0.80;;;3.70;99.90;;;;;;5058346;28;20215;-84
2021/01/02 00:37:03;;;;;;;0.50;0.50;;;3.60;99.90;;;;;;5061039;28;20233;-85
2021/01/02 00:39:52;;;;;;;3.87;1.57;;;3.40;99.90;;;;;;5061988;28;20179;-85
2021/01/02 00:42:20;;;;;;;1.80;1.13;;;3.20;99.90;;;;;;5067008;28;20831;-84
2021/01/02 00:44:47;;;;;;;1.33;0.47;;;3.10;99.90;;;;;;5062669;28;20217;-87
2021/01/02 00:47:14;;;;;;;1.93;0.77;;;3.10;99.90;;;;;;5060177;28;20626;-85
2021/01/02 00:49:43;;;;;;;2.93;2.03;;;3.00;99.90;;;;;;5075369;28;20205;-87
2021/01/02 00:52:30;;;;;;;0.63;0.63;;;3.10;99.90;;;;;;5071197;28;20726;-86
2021/01/02 00:54:58;;;;;;;1.87;1.03;;;3.10;99.90;;;;;;5050424;28;20308;-85
2021/01/02 00:57:39;;;;;;;1.03;0.83;;;3.10;99.90;;;;;;5061765;28;20696;-84
2021/01/02 01:00:07;;;;;;;0.47;0.40;;;3.10;99.90;;;;;;5070369;28;20276;-87
2021/01/02 01:03:01;;;;;;;0.23;0.23;;;3.20;99.90;;;;;;5060865;28;20201;-85
2021/01/02 01:05:31;;;;;;;3.93;0.33;;;3.30;99.90;;;;;;5061703;28;20688;-85
2021/01/02 01:07:56;;;;;;;1.00;0.93;;;3.30;99.90;;;;;;5073160;28;20534;-84
2021/01/02 01:10:24;;;;;;;1.47;0.83;;;3.40;99.90;;;;;;5062232;28;20229;-84
2021/01/02 01:13:01;;;;;;;0.87;0.53;;;3.60;99.90;;;;;;5081184;28;20217;-84
2021/01/02 01:15:27;;;;;;;0.80;0.73;;;3.60;99.90;;;;;;5073414;28;20189;-86
2021/01/02 01:18:19;;;;;;;0.60;0.47;;;3.70;99.90;;;;;;5073206;28;20214;-85
2021/01/02 01:20:52;;;;;;;0.43;0.43;;;3.80;99.90;;;;;;5072503;28;20185;-86
2021/01/02 01:23:39;;;;;;;0.70;0.47;;;3.90;99.90;;;;;;5068201;28;20301;-84
2021/01/02 01:26:37;;;;;;;0.27;0.27;;;4.00;99.90;;;;;;5071067;28;20182;-88
2021/01/02 01:29:04;;;;;;;1.23;0.97;;;4.10;99.90;;;;;;5053837;28;20742;-84
2021/01/02 01:31:42;;;;;;;0.60;0.40;;;4.20;99.90;;;;;;5074560;28;20179;-85
2021/01/02 01:34:10;;;;;;;1.03;1.03;;;4.20;99.90;;;;;;5067598;28;20186;-88
2021/01/02 01:36:36;;;;;;;0.63;0.53;;;4.30;99.90;;;;;;5071186;28;20209;-88
2021/01/02 01:39:04;;;;;;;0.30;0.30;;;4.30;99.90;;;;;;5067288;28;20187;-85
2021/01/02 01:41:35;;;;;;;0.97;0.77;;;4.30;99.90;;;;;;5071618;28;20318;-84
2021/01/02 01:44:09;;;;;;;2.10;0.77;;;4.30;99.90;;;;;;5069834;28;20191;-84
2021/01/02 01:47:02;;;;;;;5.13;1.00;;;4.30;99.90;;;;;;5074968;28;20182;-84
2021/01/02 01:49:57;;;;;;;8.03;1.00;;;4.20;99.90;;;;;;5059862;28;20674;-85
2021/01/02 01:52:34;;;;;;;0.50;0.50;;;4.20;99.90;;;;;;5064307;28;20247;-85
2021/01/02 01:55:07;;;;;;;2.13;1.07;;;4.30;99.90;;;;;;5036550;28;20195;-85
2021/01/02 01:57:41;;;;;;;1.93;0.67;;;4.30;99.90;;;;;;5066808;28;20211;-83
2021/01/02 02:00:13;;;;;;;1.80;1.10;;;4.20;99.90;;;;;;5067244;28;20186;-84
2021/01/02 02:02:44;;;;;;;1.10;0.80;;;3.90;99.90;;;;;;5076360;28;20679;-85
2021/01/02 02:05:16;;;;;;;1.33;0.87;;;3.90;99.90;;;;;;5065002;28;20209;-85
2021/01/02 02:07:53;;;;;;;1.73;1.23;;;4.00;99.90;;;;;;5055951;28;20211;-84
2021/01/02 02:10:29;;;;;;;0.80;0.73;;;4.10;99.90;;;;;;5056155;28;20179;-87
2021/01/02 02:12:57;;;;;;;6.07;0.90;;;4.00;99.90;;;;;;5054555;28;20841;-85
2021/01/02 02:15:28;;;;;;;0.40;0.40;;;3.90;99.90;;;;;;5070304;28;20187;-89
2021/01/02 02:18:05;;;;;;;2.53;2.43;;;3.80;99.90;;;;;;5047438;28;20207;-85
2021/01/02 02:20:32;;;;;;;4.13;0.87;;;3.70;99.90;;;;;;5065368;28;20179;-84
2021/01/02 02:23:04;;;;;;;2.40;1.53;;;3.60;99.90;;;;;;5050224;28;20211;-85
2021/01/02 02:25:39;;;;;;;2.00;0.77;;;3.60;99.90;;;;;;5052982;28;20190;-86
2021/01/02 02:28:13;;;;;;;0.30;0.30;;;3.60;99.90;;;;;;5055760;28;20183;-84
2021/01/02 02:30:45;;;;;;;1.20;1.10;;;3.80;99.90;;;;;;5047024;28;20245;-85
2021/01/02 02:33:21;;;;;;;0.40;0.30;;;3.90;99.90;;;;;;5040830;28;20207;-84
2021/01/02 02:35:46;;;;;;;1.00;0.80;;;3.70;99.90;;;;;;5053964;28;20261;-85
2021/01/02 02:38:12;;;;;;;1.60;0.90;;;3.60;99.90;;;;;;5051811;28;20265;-84
2021/01/02 02:40:38;;;;;;;0.30;0.30;;;3.60;99.90;;;;;;5063015;28;20188;-85
2021/01/02 02:43:05;;;;;;;2.27;1.00;;;3.50;99.90;;;;;;5063422;28;20305;-87
2021/01/02 02:45:33;;;;;;;0.57;0.57;;;3.50;99.90;;;;;;5053240;28;20210;-84
2021/01/02 02:48:13;;;;;;;4.20;0.67;;;3.50;99.90;;;;;;5058496;28;20186;-85
2021/01/02 02:50:40;;;;;;;0.60;0.60;;;3.40;99.90;;;;;;5063556;28;20178;-85
2021/01/02 02:53:09;;;;;;;0.63;0.53;;;3.60;99.90;;;;;;5067155;28;20218;-87
2021/01/02 02:55:40;;;;;;;1.17;0.70;;;3.70;99.90;;;;;;5047904;28;20187;-84
2021/01/02 02:58:06;;;;;;;1.13;0.60;;;3.80;99.90;;;;;;5047784;28;20187;-87
2021/01/02 03:00:33;;;;;;;0.30;0.30;;;3.90;99.90;;;;;;5057799;28;20178;-84
2021/01/02 03:03:01;;;;;;;0.50;0.50;;;3.90;99.90;;;;;;5060965;28;20636;-85
2021/01/02 03:05:27;;;;;;;1.53;1.17;;;3.70;99.90;;;;;;5060188;28;20175;-84
2021/01/02 03:07:53;;;;;;;0.60;0.60;;;3.60;99.90;;;;;;5061952;28;20183;-84
2021/01/02 03:10:20;;;;;;;1.97;1.10;;;3.50;99.90;;;;;;5053814;28;20178;-86
2021/01/02 03:12:47;;;;;;;0.23;0.20;;;3.30;99.90;;;;;;5069410;28;20212;-87
2021/01/02 03:15:15;;;;;;;0.57;0.57;;;3.30;99.90;;;;;;5068212;28;20185;-85
2021/01/02 03:17:42;;;;;;;0.43;0.43;;;3.30;99.90;;;;;;5053028;28;20203;-85
2021/01/02 03:20:09;;;;;;;1.83;1.00;;;3.20;99.90;;;;;;5050670;28;20255;-85
2021/01/02 03:22:40;;;;;;;2.30;1.37;;;3.20;99.90;;;;;;5065193;28;20227;-86
2021/01/02 03:25:08;;;;;;;1.30;1.07;;;3.20;99.90;;;;;;5062559;28;20269;-87
2021/01/02 03:27:33;;;;;;;0.80;0.80;;;3.30;99.90;;;;;;5048006;28;20639;-84
2021/01/02 03:29:59;;;;;;;1.73;0.97;;;3.30;99.90;;;;;;5063171;28;20185;-86
2021/01/02 03:32:25;;;;;;;0.77;0.77;;;3.20;99.90;;;;;;5062214;28;20293;-85
2021/01/02 03:34:50;;;;;;;0.27;0.27;;;3.20;99.90;;;;;;5060653;28;20179;-86
2021/01/02 03:37:16;;;;;;;0.40;0.40;;;3.20;99.90;;;;;;5063399;28;20346;-84
2021/01/02 03:39:41;;;;;;;1.57;1.47;;;3.10;99.90;;;;;;5068581;28;20268;-86
2021/01/02 03:42:09;;;;;;;0.10;0.10;;;3.10;99.90;;;;;;5058795;28;20208;-84
2021/01/02 03:44:34;;;;;;;0.67;0.67;;;3.00;99.90;;;;;;5060423;28;20173;-87
2021/01/02 03:47:06;;;;;;;1.80;1.70;;;3.10;99.90;;;;;;5064095;28;20190;-85
2021/01/02 03:49:31;;;;;;;0.57;0.30;;;3.30;99.90;;;;;;5067107;28;20178;-85
2021/01/02 03:52:03;;;;;;;0.77;0.60;;;3.50;99.90;;;;;;5053627;28;20208;-85
2021/01/02 03:54:29;;;;;;;0.83;0.77;;;3.70;99.90;;;;;;5071695;28;20410;-85
2021/01/02 03:56:55;;;;;;;0.20;0.20;;;3.80;99.90;;;;;;5055536;28;20294;-86
2021/01/02 03:59:20;;;;;;;0.10;0.10;;;3.90;99.90;;;;;;5056404;28;20271;-86
2021/01/02 04:01:57;;;;;;;0.50;0.50;;;4.00;99.90;;;;;;5061510;28;20210;-84
2021/01/02 04:04:24;;;;;;;0.40;0.40;;;4.00;99.90;;;;;;5051548;28;20185;-84
2021/01/02 04:06:52;;;;;;;3.27;1.43;;;4.00;99.90;;;;;;5052127;28;20232;-85
2021/01/02 04:09:29;;;;;;;0.37;0.23;;;3.80;99.90;;;;;;5063396;28;20187;-89
2021/01/02 04:11:54;;;;;;;0.27;0.27;;;3.80;99.90;;;;;;5067791;28;20222;-88
2021/01/02 04:14:20;;;;;;;0.53;0.47;;;3.60;99.90;;;;;;5055285;28;20236;-84
2021/01/02 04:16:46;;;;;;;0.90;0.80;;;3.60;99.90;;;;;;5058359;28;20671;-84
2021/01/02 04:19:12;;;;;;;0.17;0.17;;;3.70;99.90;;;;;;5055989;28;20206;-86
2021/01/02 04:21:38;;;;;;;1.27;0.37;;;3.80;99.90;;;;;;5069233;28;20269;-84
2021/01/02 04:24:05;;;;;;;0.30;0.30;;;3.90;99.90;;;;;;5060350;28;20263;-84
2021/01/02 04:26:33;;;;;;;0.73;0.70;;;4.00;99.90;;;;;;5064093;28;20191;-85
2021/01/02 04:28:58;;;;;;;0.20;0.20;;;4.10;99.90;;;;;;5064244;28;20201;-89
2021/01/02 04:31:35;;;;;;;0.47;0.47;;;4.00;99.90;;;;;;5046260;28;20204;-85
2021/01/02 04:34:06;;;;;;;0.73;0.60;;;3.90;99.90;;;;;;5047904;28;20179;-85
2021/01/02 04:36:32;;;;;;;0.37;0.37;;;3.90;99.90;;;;;;5055883;28;20233;-84
2021/01/02 04:38:58;;;;;;;0.67;0.37;;;3.80;99.90;;;;;;5058245;28;20266;-84
2021/01/02 04:41:24;;;;;;;0.57;0.50;;;3.70;99.90;;;;;;5065867;28;20608;-84
2021/01/02 04:43:51;;;;;;;0.43;0.37;;;3.80;99.90;;;;;;5064410;28;20215;-85
2021/01/02 04:46:17;;;;;;;0.73;0.73;;;4.00;99.90;;;;;;5068343;28;20177;-85
2021/01/02 04:48:45;;;;;;;1.00;1.00;;;4.00;99.90;;;;;;5057185;28;20266;-84
2021/01/02 04:51:13;;;;;;;0.70;0.40;;;3.90;99.90;;;;;;5057780;28;20177;-90
2021/01/02 04:53:38;;;;;;;0.97;0.73;;;3.70;99.90;;;;;;5065659;28;20214;-84
2021/01/02 04:56:07;;;;;;;0.40;0.40;;;3.80;99.90;;;;;;5056890;28;20207;-85
2021/01/02 04:58:44;;;;;;;0.63;0.63;;;3.90;99.90;;;;;;5061644;28;20203;-84
2021/01/02 05:01:12;;;;;;;0.50;0.50;;;4.00;99.90;;;;;;5056245;28;20187;-86
2021/01/02 05:03:43;;;;;;;0.20;0.20;;;4.00;99.90;;;;;;5059892;28;20197;-86
2021/01/02 05:06:09;;;;;;;0.73;0.47;;;3.80;99.90;;;;;;5052452;28;20180;-84
2021/01/02 05:08:35;;;;;;;0.33;0.33;;;3.90;99.90;;;;;;5042285;28;20801;-84
2021/01/02 05:11:02;;;;;;;3.90;1.03;;;3.90;99.90;;;;;;5064282;28;20205;-84
2021/01/02 05:13:33;;;;;;;0.97;0.97;;;4.00;99.90;;;;;;5070662;28;20223;-84
2021/01/02 05:16:27;;;;;;;0.10;0.10;;;4.10;99.90;;;;;;5064663;28;20636;-87
2021/01/02 05:19:01;;;;;;;0.87;0.87;;;3.80;99.90;;;;;;5064020;28;20187;-84
2021/01/02 05:21:28;;;;;;;0.40;0.40;;;3.70;99.90;;;;;;5052499;28;20180;-84
2021/01/02 05:24:07;;;;;;;0.93;0.70;;;3.70;99.90;;;;;;5056692;28;20176;-87
2021/01/02 05:26:34;;;;;;;0.10;0.10;;;3.60;99.90;;;;;;5072955;28;20600;-84
2021/01/02 05:29:10;;;;;;;0.73;0.73;;;3.70;99.90;;;;;;5076899;28;20183;-87
2021/01/02 05:31:40;;;;;;;0.47;0.47;;;3.80;99.90;;;;;;5057086;28;20260;-87
2021/01/02 05:34:10;;;;;;;0.37;0.37;;;3.90;99.90;;;;;;5054007;28;20195;-89
2021/01/02 05:36:42;;;;;;;0.20;0.20;;;4.00;99.90;;;;;;5057372;28;20502;-84
2021/01/02 05:39:10;;;;;;;0.20;0.20;;;4.10;99.90;;;;;;5070017;28;20257;-87
2021/01/02 05:41:53;;;;;;;0.10;0.10;;;4.10;99.90;;;;;;5060720;28;20187;-86
2021/01/02 05:44:21;;;;;;;0.30;0.30;;;4.20;99.90;;;;;;5064934;28;20186;-86
2021/01/02 05:46:53;;;;;;;0.57;0.40;;;4.20;99.90;;;;;;5082132;28;20254;-85
2021/01/02 05:49:45;;;;;;;0.50;0.50;;;4.20;99.90;;;;;;5068469;28;20184;-86
2021/01/02 05:52:11;;;;;;;0.40;0.40;;;4.30;99.90;;;;;;5073055;28;20224;-85
2021/01/02 05:54:47;;;;;;;0.30;0.30;;;4.10;99.90;;;;;;5060189;28;20266;-84
2021/01/02 05:57:14;;;;;;;0.57;0.30;;;3.60;99.90;;;;;;5058149;28;20208;-90
2021/01/02 05:59:41;;;;;;;1.27;0.63;;;3.30;99.90;;;;;;5070415;28;20192;-89
2021/01/02 06:02:26;;;;;;;2.47;0.80;;;3.40;99.90;;;;;;5070345;28;20205;-92
2021/01/02 06:05:05;;;;;;;0.10;0.10;;;3.50;99.90;;;;;;5074256;28;20265;-91
2021/01/02 06:07:33;;;;;;;0.90;0.77;;;3.30;99.90;;;;;;5073791;28;20193;-88
2021/01/02 06:09:59;;;;;;;0.73;0.73;;;3.50;99.90;;;;;;5073502;28;20189;-88
2021/01/02 06:12:30;;;;;;;1.73;0.90;;;3.70;99.90;;;;;;5085282;28;20291;-87
2021/01/02 06:15:02;;;;;;;0.20;0.20;;;3.80;99.90;;;;;;5082696;28;20155;-89
2021/01/02 06:17:32;;;;;;;0.57;0.57;;;3.90;99.90;;;;;;5075847;28;20273;-89
2021/01/02 06:20:08;;;;;;;0.50;0.50;;;3.90;99.90;;;;;;5077305;28;20183;-92
2021/01/02 06:22:35;;;;;;;1.70;0.30;;;3.90;99.90;;;;;;5060125;22;20232;-82
2021/01/02 06:25:03;;;;;;;1.40;0.47;;;4.00;99.90;;;;;;5029841;28;20198;-83
2021/01/02 06:27:29;;;;;;;0.73;0.50;;;4.00;99.90;;;;;;5030361;28;20218;-83
2021/01/02 06:30:00;;;;;;;0.13;0.13;;;3.90;99.90;;;;;;5024051;28;20267;-83
2021/01/02 06:32:28;;;;;;;0.90;0.57;;;3.50;99.90;;;;;;5013943;28;20207;-83
2021/01/02 06:35:06;;;;;;;1.20;0.57;;;3.20;99.90;;;;;;5011277;28;20257;-82
2021/01/02 06:37:47;;;;;;;0.10;0.10;;;3.20;99.90;;;;;;5011751;28;20217;-83
2021/01/02 06:40:42;;;;;;;0.77;0.77;;;3.30;99.90;;;;;;5011641;28;20189;-83
2021/01/02 06:43:11;;;;;;;0.37;0.37;;;3.10;99.90;;;;;;5006891;28;20191;-83
2021/01/02 06:45:40;;;;;;;0.70;0.70;;;3.20;99.90;;;;;;5011460;28;20180;-83
2021/01/02 06:48:23;;;;;;;0.20;0.13;;;3.20;99.90;;;;;;5010720;28;20194;-83
2021/01/02 06:50:57;;;;;;;0.27;0.20;;;3.00;99.90;;;;;;5011691;28;20272;-83
2021/01/02 06:53:34;;;;;;;0.40;0.40;;;3.20;99.90;;;;;;4995124;28;20215;-84
2021/01/02 06:56:10;;;;;;;0.33;0.33;;;3.10;99.90;;;;;;5006312;28;20187;-83
2021/01/02 06:58:36;;;;;;;0.27;0.27;;;3.10;99.90;;;;;;5011252;28;20717;-83
2021/01/02 07:01:04;;;;;;;0.10;0.10;;;3.10;99.90;;;;;;5010852;28;20208;-82
2021/01/02 07:03:39;;;;;;;0.17;0.17;;;3.20;99.90;;;;;;5011079;28;20198;-83
2021/01/02 07:06:23;;;;;;;2.00;0.73;;;3.10;99.90;;;;;;5010500;28;20226;-82
2021/01/02 07:08:59;;;;;;;0.20;0.20;;;3.30;99.90;;;;;;5025897;28;20229;-83
2021/01/02 07:11:43;;;;;;;1.50;0.50;;;3.40;99.90;;;;;;5010889;28;20206;-83
2021/01/02 07:14:12;;;;;;;0.63;0.53;;;3.50;99.90;;;;;;5008795;28;20188;-83
2021/01/02 07:16:38;;;;;;;0.37;0.37;;;3.60;99.90;;;;;;5010479;28;20218;-83
2021/01/02 07:19:05;;;;;;;0.23;0.17;;;3.70;99.90;;;;;;5010349;28;20228;-83
2021/01/02 07:21:37;;;;;;;0.13;0.13;;;3.80;99.90;;;;;;5010350;28;20231;-83
2021/01/02 07:24:42;;;;;;;0.20;0.20;;;3.80;99.90;;;;;;5011945;28;20203;-82
2021/01/02 07:27:19;;;;;;;0.20;0.20;;;3.80;99.90;;;;;;5003966;28;20680;-83
2021/01/02 07:29:50;;;;;;;0.50;0.50;;;3.80;99.90;;;;;;5008461;28;20689;-83
2021/01/02 07:32:24;;;;;;;0.47;0.47;;;4.00;99.90;;;;;;5010023;28;20290;-82
2021/01/02 07:34:59;;;;;;;0.33;0.33;;;3.90;99.90;;;;;;5009869;28;20673;-82
2021/01/02 07:37:27;;;;;;;0.50;0.50;;;4.00;99.90;;;;;;5012587;28;20873;-82
2021/01/02 07:40:14;;;;;;;0.10;0.10;;;4.00;99.90;;;;;;5010514;28;20204;-83
2021/01/02 07:42:47;;;;;;;0.40;0.40;;;4.00;99.90;;;;;;5007511;28;20218;-83
2021/01/02 07:45:14;;;;;;;1.17;0.53;;;4.10;99.90;;;;;;5011753;28;20189;-82
2021/01/02 07:47:59;;;;;;;0.30;0.30;;;4.10;99.90;;;;;;4997567;28;20201;-83
2021/01/02 07:50:27;;;;;;;0.63;0.50;;;4.10;99.90;;;;;;5008309;28;20608;-83
2021/01/02 07:52:54;;;;;;;0.10;0.10;;;4.00;99.90;;;;;;5009738;28;20225;-83
2021/01/02 07:55:27;;;;;;;0.30;0.30;;;3.90;99.90;;;;;;5008965;28;20285;-80
2021/01/02 07:57:53;;;;;;;0.53;0.53;;;3.90;99.90;;;;;;5011687;28;20553;-82
2021/01/02 08:00:20;;;;;;;6.40;0.57;;;3.70;99.90;;;;;;5010978;28;20243;-83
2021/01/02 08:02:46;;;;;;;0.63;0.20;;;3.50;99.90;;;;;;5008864;28;20259;-83
2021/01/02 08:05:14;;;;;;;1.93;0.57;;;3.60;99.90;;;;;;5009844;28;20677;-83
2021/01/02 08:07:42;;;;;;;0.40;0.40;;;3.80;99.90;;;;;;5010369;28;20679;-83
2021/01/02 08:10:12;;;;;;;0.00;0.00;;;3.70;99.90;;;;;;5009852;28;20220;-81
2021/01/02 08:12:45;;;;;;;0.20;0.20;;;3.60;99.90;;;;;;5009820;28;20217;-81
2021/01/02 08:15:11;;;;;;;1.27;1.00;;;3.50;99.90;;;;;;5010149;28;20185;-83
2021/01/02 08:17:40;;;;;;;0.40;0.40;;;3.40;99.90;;;;;;5011766;28;20212;-83
2021/01/02 08:20:06;;;;;;;1.83;0.30;;;3.30;99.90;;;;;;5009535;28;20272;-81
2021/01/02 08:22:37;;;;;;;0.20;0.20;;;3.30;99.90;;;;;;5010335;28;20220;-81
2021/01/02 08:25:16;;;;;;;4.07;0.30;;;3.30;99.90;;;;;;5009914;28;20240;-80
2021/01/02 08:27:43;;;;;;;0.53;0.53;;;3.40;99.90;;;;;;5023275;28;20194;-80
2021/01/02 08:30:10;;;;;;;0.20;0.20;;;3.40;99.90;;;;;;5007210;28;20212;-82
2021/01/02 08:32:39;;;;;;;0.40;0.30;;;3.40;99.90;;;;;;5005178;28;20244;-81
2021/01/02 08:35:19;;;;;;;0.43;0.43;;;3.40;99.90;;;;;;5007623;28;20266;-80
2021/01/02 08:37:46;;;;;;;0.47;0.10;;;3.30;99.90;;;;;;5011129;28;20295;-80
2021/01/02 08:40:14;;;;;;;0.10;0.10;;;3.30;99.90;;;;;;5007003;28;20553;-81
2021/01/02 08:42:42;;;;;;;3.77;0.40;;;3.30;99.90;;;;;;5023999;28;20647;-81
2021/01/02 08:45:09;;;;;;;1.60;0.67;;;3.30;99.90;;;;;;5005697;28;20529;-81
2021/01/02 08:47:37;;;;;;;0.20;0.20;;;3.40;99.90;;;;;;5000750;28;20680;-81
2021/01/02 08:50:13;;;;;;;0.10;0.10;;;3.70;99.90;;;;;;5005198;28;20239;-82
2021/01/02 08:52:40;;;;;;;0.87;0.20;;;3.50;99.90;;;;;;5001686;28;20219;-81
2021/01/02 08:55:14;;;;;;;0.10;0.10;;;3.70;99.90;;;;;;5008588;28;20250;-82
2021/01/02 08:57:50;;;;;;;0.67;0.53;;;3.70;99.90;;;;;;5007058;28;20303;-80
2021/01/02 09:00:24;;;;;;;0.10;0.10;;;3.70;99.90;;;;;;5008167;28;20218;-82
2021/01/02 09:03:00;;;;;;;0.37;0.37;;;3.70;99.90;;;;;;5012922;28;20228;-82
2021/01/02 09:05:37;;;;;;;0.10;0.10;;;3.60;99.90;;;;;;5007141;28;20189;-82
2021/01/02 09:08:08;;;;;;;0.30;0.30;;;3.60;99.90;;;;;;5007118;28;20184;-81
2021/01/02 09:10:40;;;;;;;0.10;0.10;;;3.60;99.90;;;;;;5010910;28;20204;-81
2021/01/02 09:13:24;;;;;;;0.17;0.17;;;3.70;99.90;;;;;;5008812;28;20192;-80
2021/01/02 09:15:51;;;;;;;0.23;0.23;;;3.80;99.90;;;;;;5007891;28;20263;-82
2021/01/02 09:18:35;;;;;;;0.07;0.07;;;3.90;99.90;;;;;;5013337;28;20233;-82
2021/01/02 09:21:06;;;;;;;0.20;0.20;;;3.90;99.90;;;;;;5010190;28;20240;-80
2021/01/02 09:23:40;;;;;;;0.20;0.20;;;4.20;99.90;;;;;;5010709;28;20192;-81
2021/01/02 09:26:27;;;;;;;0.07;0.07;;;4.40;99.90;;;;;;5011359;28;20196;-81
2021/01/02 09:28:54;;;;;;;0.37;0.37;;;4.30;99.90;;;;;;5010266;28;20186;-82
2021/01/02 09:31:20;;;;;;;0.10;0.10;;;4.50;99.90;;;;;;5023918;28;20213;-83
2021/01/02 09:33:46;;;;;;;0.10;0.10;;;4.40;99.90;;;;;;5027981;28;20189;-81
2021/01/02 09:36:13;;;;;;;0.10;0.10;;;4.30;99.90;;;;;;5013333;28;20210;-82
2021/01/02 09:38:40;;;;;;;0.20;0.10;;;4.30;99.90;;;;;;5010334;28;20189;-82
2021/01/02 09:41:05;;;;;;;0.20;0.20;;;4.40;99.90;;;;;;5009621;28;20673;-81
2021/01/02 09:43:31;;;;;;;0.10;0.10;;;4.50;99.90;;;;;;5006179;28;20194;-82
2021/01/02 09:45:56;;;;;;;2.13;0.97;;;4.80;99.90;;;;;;5013069;28;20298;-82
2021/01/02 09:48:22;;;;;;;2.93;0.30;;;4.90;99.90;;;;;;5008859;28;20534;-80
2021/01/02 09:50:47;;;;;;;0.30;0.13;;;4.70;99.90;;;;;;5006613;28;20214;-83
2021/01/02 09:53:14;;;;;;;0.00;0.00;;;4.80;99.90;;;;;;5005395;28;20250;-82
2021/01/02 09:55:40;;;;;;;0.10;0.10;;;4.60;99.90;;;;;;5007774;28;20550;-83
2021/01/02 09:58:05;;;;;;;0.13;0.13;;;4.40;99.90;;;;;;5004779;28;20206;-82
2021/01/02 10:00:31;;;;;;;0.10;0.10;;;4.60;99.90;;;;;;5004693;28;20199;-81
2021/01/02 10:02:57;;;;;;;0.20;0.20;;;4.40;99.90;;;;;;5025558;28;20587;-82
2021/01/02 10:05:24;;;;;;;0.00;0.00;;;4.30;99.90;;;;;;5008460;28;20181;-81
2021/01/02 10:07:51;;;;;;;0.10;0.10;;;4.30;99.90;;;;;;5012911;28;20192;-83
2021/01/02 10:10:18;;;;;;;0.50;0.20;;;4.30;99.90;;;;;;5008468;28;20188;-82
2021/01/02 10:12:45;;;;;;;0.10;0.10;;;4.30;99.90;;;;;;5009380;28;20270;-82
2021/01/02 10:15:11;;;;;;;0.10;0.10;;;4.00;99.90;;;;;;5011173;28;20206;-82
2021/01/02 10:17:37;;;;;;;0.40;0.37;;;4.10;99.90;;;;;;5012468;28;20643;-83
2021/01/02 10:20:04;;;;;;;0.40;0.40;;;4.10;99.90;;;;;;5011476;28;20271;-82
2021/01/02 10:22:30;;;;;;;0.20;0.20;;;4.00;99.90;;;;;;5010940;28;20220;-82
2021/01/02 10:24:56;;;;;;;1.20;0.70;;;4.10;99.90;;;;;;5012839;28;20743;-83
2021/01/02 10:27:23;;;;;;;0.20;0.20;;;4.00;99.90;;;;;;5011438;28;20283;-83
2021/01/02 10:29:52;;;;;;;0.30;0.30;;;4.10;99.90;;;;;;5011724;28;20211;-83
2021/01/02 10:32:20;;;;;;;0.37;0.23;;;4.10;99.90;;;;;;5008548;28;20215;-81
2021/01/02 10:34:48;;;;;;;0.20;0.20;;;4.00;99.90;;;;;;5008738;28;20198;-81
2021/01/02 10:37:14;;;;;;;0.10;0.10;;;4.00;99.90;;;;;;5009962;28;20221;-83
2021/01/02 10:39:41;;;;;;;0.20;0.20;;;3.90;99.90;;;;;;5007868;28;20193;-83
2021/01/02 10:42:07;;;;;;;0.47;0.33;;;4.00;99.90;;;;;;5009755;28;20205;-82
2021/01/02 10:44:33;;;;;;;0.27;0.27;;;4.10;99.90;;;;;;5008522;28;20188;-82
2021/01/02 10:46:59;;;;;;;0.20;0.20;;;4.10;99.90;;;;;;5011380;28;20193;-82
2021/01/02 10:49:25;;;;;;;0.30;0.30;;;4.10;99.90;;;;;;5012038;28;20188;-82
2021/01/02 10:51:51;;;;;;;0.63;0.60;;;4.10;99.90;;;;;;5012063;28;20239;-82
2021/01/02 10:54:18;;;;;;;1.20;0.23;;;4.10;99.90;;;;;;5010496;28;20242;-82
2021/01/02 10:57:01;;;;;;;0.40;0.40;;;4.10;99.90;;;;;;5012051;28;20215;-82
2021/01/02 10:59:27;;;;;;;0.13;0.13;;;4.10;99.90;;;;;;5023508;28;20210;-82
2021/01/02 11:01:55;;;;;;;0.10;0.10;;;4.20;99.90;;;;;;5011186;28;20239;-81
2021/01/02 11:04:23;;;;;;;0.43;0.43;;;4.30;99.90;;;;;;5010253;28;20201;-80
2021/01/02 11:06:53;;;;;;;0.43;0.43;;;4.30;99.90;;;;;;5013471;28;20192;-82
2021/01/02 11:09:20;;;;;;;2.37;0.23;;;4.20;99.90;;;;;;5012023;28;20195;-82
2021/01/02 11:11:46;;;;;;;0.80;0.47;;;4.20;99.90;;;;;;5011009;28;20698;-82
2021/01/02 11:14:13;;;;;;;0.40;0.30;;;4.10;99.90;;;;;;5009728;28;20199;-81
2021/01/02 11:16:43;;;;;;;0.17;0.13;;;4.30;99.90;;;;;;5010824;28;20215;-82
2021/01/02 11:19:14;;;;;;;0.10;0.10;;;4.50;99.90;;;;;;5009602;28;20178;-81
2021/01/02 11:21:41;;;;;;;0.10;0.10;;;4.50;99.90;;;;;;5010231;28;20231;-81
2021/01/02 11:24:07;;;;;;;0.20;0.20;;;4.40;99.90;;;;;;5017121;28;20652;-81
2021/01/02 11:26:34;;;;;;;0.23;0.23;;;4.40;99.90;;;;;;5006328;28;20239;-81
2021/01/02 11:29:00;;;;;;;0.20;0.20;;;4.30;99.90;;;;;;5011184;28;20193;-83
2021/01/02 11:31:34;;;;;;;0.20;0.13;;;4.40;99.90;;;;;;5010014;28;20794;-82
2021/01/02 11:34:00;;;;;;;0.07;0.07;;;4.60;99.90;;;;;;5020228;28;20279;-81
2021/01/02 11:36:26;;;;;;;0.20;0.20;;;4.60;99.90;;;;;;5008205;28;20295;-82
2021/01/02 11:38:53;;;;;;;0.10;0.10;;;4.40;99.90;;;;;;5011939;28;21535;-81
2021/01/02 11:41:28;;;;;;;0.23;0.20;;;4.30;99.90;;;;;;5014116;28;20204;-82
2021/01/02 11:43:53;;;;;;;0.43;0.30;;;4.30;99.90;;;;;;5008943;28;20542;-82
2021/01/02 11:46:30;;;;;;;0.20;0.20;;;4.30;99.90;;;;;;5008136;28;20207;-82
2021/01/02 11:48:55;;;;;;;0.10;0.10;;;4.20;99.90;;;;;;5009162;28;20189;-80
2021/01/02 11:51:21;;;;;;;0.10;0.10;;;4.20;99.90;;;;;;5006730;28;20587;-82
2021/01/02 11:53:46;;;;;;;0.10;0.10;;;4.30;99.90;;;;;;5008354;28;20661;-82
2021/01/02 11:56:12;;;;;;;0.20;0.20;;;4.40;99.90;;;;;;5006271;28;20269;-82
2021/01/02 11:58:38;;;;;;;0.00;0.00;;;4.40;99.90;;;;;;5024354;28;20338;-82
2021/01/02 12:01:03;;;;;;;0.10;0.10;;;4.30;99.90;;;;;;5006358;28;20212;-81
2021/01/02 12:03:29;;;;;;;0.40;0.40;;;4.30;99.90;;;;;;5004428;28;20235;-82
2021/01/02 12:05:54;;;;;;;0.33;0.30;;;4.40;99.90;;;;;;5008505;28;20188;-81
2021/01/02 12:08:20;;;;;;;0.20;0.20;;;4.40;99.90;;;;;;5009463;28;20185;-82
2021/01/02 12:10:46;;;;;;;0.10;0.10;;;4.40;99.90;;;;;;5008535;28;20193;-81
2021/01/02 12:13:12;;;;;;;1.03;0.40;;;4.40;99.90;;;;;;5010902;28;20684;-81
2021/01/02 12:15:38;;;;;;;0.10;0.10;;;4.40;99.90;;;;;;5009560;28;20185;-82
2021/01/02 12:18:03;;;;;;;0.10;0.10;;;4.40;99.90;;;;;;5007945;28;20706;-81
2021/01/02 12:20:29;;;;;;;0.87;0.43;;;4.50;99.90;;;;;;5002366;28;20613;-82
2021/01/02 12:22:54;;;;;;;0.07;0.07;;;4.40;99.90;;;;;;5005185;28;20224;-82
2021/01/02 12:25:21;;;;;;;0.10;0.10;;;4.40;99.90;;;;;;5003219;28;20179;-81
2021/01/02 12:27:47;;;;;;;0.10;0.10;;;4.40;99.90;;;;;;5007262;28;20192;-82
2021/01/02 12:30:13;;;;;;;0.10;0.10;;;4.30;99.90;;;;;;5006382;28;20184;-82
2021/01/02 12:32:38;;;;;;;0.87;0.87;;;4.30;99.90;;;;;;5009673;28;20584;-79
2021/01/02 12:35:05;;;;;;;2.00;0.27;;;4.40;99.90;;;;;;5008694;28;20195;-82
2021/01/02 12:37:30;;;;;;;0.50;0.40;;;4.40;99.90;;;;;;5013146;28;20211;-82
2021/01/02 12:39:56;;;;;;;0.00;0.00;;;4.30;99.90;;;;;;5011936;28;20183;-81
2021/01/02 12:42:21;;;;;;;0.73;0.17;;;4.40;99.90;;;;;;5010370;28;20674;-83
2021/01/02 12:44:49;;;;;;;0.10;0.10;;;4.50;99.90;;;;;;5011173;28;20530;-83
2021/01/02 12:47:17;;;;;;;0.10;0.10;;;4.60;99.90;;;;;;5012924;28;20199;-82
2021/01/02 12:49:44;;;;;;;0.10;0.10;;;4.60;99.90;;;;;;5011553;28;20197;-82
2021/01/02 12:52:10;;;;;;;0.47;0.37;;;4.60;99.90;;;;;;5028911;28;20212;-83
2021/01/02 12:54:36;;;;;;;0.33;0.33;;;4.50;99.90;;;;;;5027296;28;20185;-83
2021/01/02 12:57:03;;;;;;;0.20;0.20;;;4.50;99.90;;;;;;5007868;28;20205;-83
2021/01/02 12:59:35;;;;;;;1.40;0.53;;;4.60;99.90;;;;;;5007667;28;20188;-81
2021/01/02 13:02:04;;;;;;;0.10;0.10;;;4.60;99.90;;;;;;5009558;28;20205;-83
2021/01/02 13:04:30;;;;;;;0.10;0.10;;;4.50;99.90;;;;;;5009374;28;20209;-83
2021/01/02 13:06:58;;;;;;;0.10;0.10;;;4.70;99.90;;;;;;5009448;28;20193;-83
2021/01/02 13:09:25;;;;;;;0.10;0.10;;;4.60;99.90;;;;;;5010678;28;20461;-83
2021/01/02 13:11:54;;;;;;;0.33;0.33;;;4.40;99.90;;;;;;5010778;28;20204;-81
2021/01/02 13:14:25;;;;;;;0.10;0.10;;;4.40;99.90;;;;;;5015278;28;20181;-83
2021/01/02 13:16:54;;;;;;;0.17;0.17;;;4.30;99.90;;;;;;5013790;28;20302;-83